createdAt,value
2023-08-03T00:04:48.658Z,19.52
2023-08-03T00:09:50.581Z,19.54
2023-08-03T00:14:52.376Z,19.51
2023-08-03T00:19:54.244Z,19.54
2023-08-03T00:24:56.041Z,19.49
2023-08-03T00:29:58.024Z,19.50
2023-08-03T00:34:59.756Z,19.46
2023-08-03T00:40:01.645Z,19.50
2023-08-03T00:45:04.508Z,19.53
2023-08-03T00:50:07.915Z,19.52
2023-08-03T00:55:09.865Z,19.51
2023-08-03T01:00:11.940Z,19.37
2023-08-03T01:05:13.886Z,19.34
2023-08-03T01:10:15.824Z,19.34
2023-08-03T01:15:17.576Z,19.28
2023-08-03T01:20:20.278Z,19.30
2023-08-03T01:25:22.229Z,19.29
2023-08-03T01:30:24.057Z,19.23
2023-08-03T01:35:26.019Z,19.25
2023-08-03T01:40:28.338Z,19.28
2023-08-03T01:45:30.084Z,19.18
2023-08-03T01:50:31.977Z,19.18
2023-08-03T01:55:33.670Z,19.13
2023-08-03T02:00:35.563Z,19.25
2023-08-03T02:05:37.325Z,19.28
2023-08-03T02:10:39.246Z,19.33
2023-08-03T02:15:40.932Z,19.30
2023-08-03T02:20:42.795Z,19.47
2023-08-03T02:25:44.529Z,19.38
2023-08-03T02:30:46.557Z,19.50
2023-08-03T02:35:48.528Z,20.16
2023-08-03T02:40:50.533Z,20.42
2023-08-03T02:45:52.961Z,21.03
2023-08-03T02:50:55.201Z,21.65
2023-08-03T02:55:57.201Z,22.41
2023-08-03T03:00:59.173Z,23.50
2023-08-03T03:06:01.240Z,24.58
2023-08-03T03:11:03.233Z,25.67
2023-08-03T03:16:05.318Z,26.35
2023-08-03T03:21:07.337Z,26.76
2023-08-03T03:26:09.338Z,26.39
2023-08-03T03:31:11.257Z,26.48
2023-08-03T03:36:13.230Z,27.67
2023-08-03T03:41:15.099Z,26.70
2023-08-03T03:46:17.054Z,25.41
2023-08-03T03:51:18.972Z,24.58
2023-08-03T03:56:20.919Z,25.19
2023-08-03T04:01:23.063Z,25.21
2023-08-03T04:06:25.265Z,26.07
2023-08-03T04:11:27.314Z,27.35
2023-08-03T04:16:29.320Z,28.81
2023-08-03T04:21:31.289Z,30.24
2023-08-03T04:26:33.290Z,31.63
2023-08-03T04:31:35.295Z,33.18
2023-08-03T04:36:37.316Z,35.00
2023-08-03T04:41:39.288Z,35.91
2023-08-03T04:46:41.252Z,36.34
2023-08-03T04:51:43.530Z,33.02
2023-08-03T04:56:45.707Z,34.97
2023-08-03T05:01:48.152Z,37.36
2023-08-03T05:06:50.555Z,37.99
2023-08-03T05:11:52.600Z,39.84
2023-08-03T05:16:54.583Z,39.73
2023-08-03T05:21:56.626Z,40.50
2023-08-03T05:26:58.554Z,40.69
2023-08-03T05:32:00.660Z,40.61
2023-08-03T05:37:02.669Z,40.52
2023-08-03T05:42:05.968Z,39.94
2023-08-03T05:47:10.557Z,40.27
2023-08-03T05:52:12.562Z,41.08
2023-08-03T05:57:14.558Z,41.25
2023-08-03T06:02:34.906Z,41.07
2023-08-03T06:07:36.916Z,41.02
2023-08-03T06:12:41.040Z,42.01
2023-08-03T06:17:43.480Z,42.03
2023-08-03T06:22:45.522Z,40.41
2023-08-03T06:27:47.486Z,42.54
2023-08-03T06:32:49.530Z,42.25
2023-08-03T06:37:53.175Z,41.94
2023-08-03T06:42:55.423Z,41.59
2023-08-03T06:47:57.440Z,43.74
2023-08-03T06:53:00.002Z,43.15
2023-08-03T06:58:02.132Z,40.62
2023-08-03T07:03:04.306Z,37.68
2023-08-03T07:08:06.373Z,34.28
2023-08-03T07:13:08.378Z,32.73
2023-08-03T07:18:10.545Z,31.99
2023-08-03T07:23:14.557Z,32.00
2023-08-03T07:28:16.507Z,32.23
2023-08-03T07:33:18.425Z,32.47
2023-08-03T07:38:20.290Z,32.12
2023-08-03T07:43:22.355Z,32.47
2023-08-03T07:48:24.372Z,32.37
2023-08-03T07:53:26.332Z,34.66
2023-08-03T07:58:28.229Z,37.95
2023-08-03T08:03:30.238Z,35.61
2023-08-03T08:08:32.286Z,33.67
2023-08-03T08:13:34.229Z,32.90
2023-08-03T08:18:36.506Z,32.68
2023-08-03T08:23:39.157Z,32.23
2023-08-03T08:28:45.539Z,32.04
2023-08-03T08:33:55.138Z,31.32
2023-08-03T08:38:57.424Z,31.34
2023-08-03T08:43:59.377Z,31.43
2023-08-03T08:49:01.523Z,31.12
2023-08-03T09:09:18.856Z,30.19
2023-08-03T09:14:20.831Z,30.54
2023-08-03T09:19:39.683Z,30.19
2023-08-03T09:24:42.028Z,30.02
2023-08-03T09:29:44.499Z,30.34
2023-08-03T09:34:46.642Z,30.48
2023-08-03T09:39:54.925Z,30.13
2023-08-03T09:44:56.932Z,29.95
2023-08-03T09:49:58.993Z,30.15
2023-08-03T09:55:10.376Z,30.27
2023-08-03T10:00:13.430Z,30.58
2023-08-03T10:05:21.124Z,30.15
2023-08-03T10:10:23.812Z,29.91
2023-08-03T10:15:25.772Z,30.14
2023-08-03T10:20:27.822Z,30.18
2023-08-03T10:25:29.780Z,30.02
2023-08-03T10:31:06.324Z,29.93
2023-08-03T10:36:08.276Z,30.15
2023-08-03T10:41:23.217Z,30.47
2023-08-03T10:46:31.584Z,30.69
2023-08-03T10:51:33.592Z,30.77
2023-08-03T10:56:38.241Z,31.02
2023-08-03T11:01:40.222Z,30.74
2023-08-03T11:06:46.358Z,30.68
2023-08-03T11:11:49.775Z,30.42
2023-08-03T11:16:51.806Z,30.24
2023-08-03T11:21:53.722Z,29.87
2023-08-03T11:26:55.514Z,29.92
2023-08-03T11:31:57.513Z,29.76
2023-08-03T11:36:59.507Z,29.45
2023-08-03T11:42:01.663Z,29.54
2023-08-03T11:47:04.975Z,29.58
2023-08-03T11:52:07.168Z,29.73
2023-08-03T11:57:09.262Z,29.74
2023-08-03T12:02:11.289Z,29.60
2023-08-03T12:12:18.917Z,28.94
2023-08-03T12:17:20.822Z,29.03
2023-08-03T12:22:22.746Z,29.20
2023-08-03T12:27:24.757Z,29.23
2023-08-03T12:32:27.012Z,29.19
2023-08-03T12:37:28.921Z,29.00
2023-08-03T12:42:30.886Z,28.69
2023-08-03T12:47:36.274Z,28.29
2023-08-03T12:52:38.924Z,27.55
2023-08-03T12:57:40.782Z,26.55
2023-08-03T13:02:42.801Z,25.28
2023-08-03T13:07:44.980Z,23.47
2023-08-03T13:12:47.101Z,21.86
2023-08-03T13:17:49.132Z,21.46
2023-08-03T13:22:51.368Z,21.64
2023-08-03T13:27:53.259Z,22.32
2023-08-03T13:32:55.358Z,23.41
2023-08-03T13:37:57.432Z,24.14
2023-08-03T13:42:59.499Z,24.73
2023-08-03T13:48:01.885Z,25.15
2023-08-03T13:53:04.154Z,25.55
2023-08-03T13:58:08.030Z,25.84
2023-08-03T14:03:11.650Z,25.86
2023-08-03T14:08:13.958Z,26.09
2023-08-03T14:13:16.090Z,26.32
2023-08-03T14:23:22.910Z,25.92
2023-08-03T14:33:29.682Z,25.64
2023-08-03T14:38:31.686Z,25.86
2023-08-03T14:43:33.695Z,25.93
2023-08-03T14:48:35.792Z,26.45
2023-08-03T14:53:37.918Z,26.33
2023-08-03T15:03:46.828Z,26.32
2023-08-03T15:08:48.976Z,26.30
2023-08-03T15:13:59.013Z,26.35
2023-08-03T15:19:10.969Z,26.40
2023-08-03T15:24:13.650Z,26.51
2023-08-03T15:29:25.231Z,26.58
2023-08-03T15:34:34.541Z,26.60
2023-08-03T15:39:43.870Z,26.65
2023-08-03T15:44:49.215Z,26.64
2023-08-03T15:49:56.967Z,26.61
2023-08-03T16:00:24.630Z,26.53
2023-08-03T16:05:26.744Z,26.57
2023-08-03T16:10:28.973Z,26.63
2023-08-03T16:15:31.654Z,26.62
2023-08-03T16:20:33.731Z,26.57
2023-08-03T16:25:35.773Z,26.50
2023-08-03T16:30:37.755Z,26.39
2023-08-03T16:35:39.773Z,26.26
2023-08-03T16:40:41.833Z,26.19
2023-08-03T16:45:43.876Z,26.08
2023-08-03T16:50:45.809Z,25.98
2023-08-03T16:55:47.759Z,25.86
2023-08-03T17:00:50.629Z,25.77
2023-08-03T17:05:55.764Z,25.60
2023-08-03T17:10:57.704Z,25.46
2023-08-03T17:15:59.728Z,25.33
2023-08-03T17:21:01.790Z,25.25
2023-08-03T17:26:03.959Z,25.17
2023-08-03T17:31:06.003Z,25.05
2023-08-03T17:36:11.713Z,25.00
2023-08-03T17:41:13.674Z,24.93
2023-08-03T17:46:15.543Z,24.87
2023-08-03T17:51:17.480Z,24.80
2023-08-03T17:56:19.854Z,24.72
2023-08-03T18:01:22.964Z,24.68
2023-08-03T18:06:25.690Z,24.62
2023-08-03T18:11:28.084Z,24.58
2023-08-03T18:16:30.199Z,24.50
2023-08-03T18:21:32.260Z,24.40
2023-08-03T18:26:34.267Z,24.35
2023-08-03T18:31:36.526Z,24.28
2023-08-03T18:36:38.490Z,24.19
2023-08-03T18:41:40.473Z,24.14
2023-08-03T18:46:42.467Z,24.08
2023-08-03T18:51:44.450Z,24.05
2023-08-03T18:56:46.551Z,24.03
2023-08-03T19:01:48.643Z,24.00
2023-08-03T19:06:50.644Z,23.98
2023-08-03T19:11:52.580Z,23.92
2023-08-03T19:16:54.451Z,23.89
2023-08-03T19:21:56.412Z,23.84
2023-08-03T19:26:58.342Z,23.82
2023-08-03T19:32:00.293Z,23.85
2023-08-03T19:37:02.212Z,23.88
2023-08-03T19:42:04.268Z,23.86
2023-08-03T19:47:06.682Z,23.82
2023-08-03T20:07:40.116Z,23.69
2023-08-03T20:12:42.267Z,23.68
2023-08-03T20:17:44.283Z,23.61
2023-08-03T20:22:46.393Z,23.57
2023-08-03T20:27:53.626Z,23.55
2023-08-03T20:32:55.747Z,23.57
2023-08-03T20:53:12.427Z,23.50
2023-08-03T21:03:18.177Z,23.52
2023-08-03T21:08:20.234Z,23.52
2023-08-03T21:13:22.405Z,23.57
2023-08-03T21:23:29.320Z,23.54
2023-08-03T21:28:31.373Z,23.50
2023-08-03T21:33:33.411Z,23.52
2023-08-03T21:38:35.596Z,23.53
2023-08-03T21:43:37.623Z,23.52
2023-08-03T21:48:39.638Z,23.49
2023-08-03T21:53:41.697Z,23.39
2023-08-03T21:58:44.109Z,23.31
2023-08-03T22:03:46.185Z,23.26
2023-08-03T22:08:49.566Z,23.23
2023-08-03T22:13:51.612Z,23.25
2023-08-03T22:18:53.719Z,23.20
2023-08-03T22:23:55.665Z,23.15
2023-08-03T22:28:57.678Z,23.19
2023-08-03T22:33:59.634Z,23.13
2023-08-03T22:39:01.639Z,23.13
2023-08-03T22:44:03.729Z,23.12
2023-08-03T22:49:05.849Z,23.12
2023-08-03T22:54:07.833Z,23.13
2023-08-03T22:59:09.849Z,23.09
2023-08-03T23:04:12.066Z,23.03
2023-08-03T23:09:14.092Z,22.99
2023-08-03T23:14:16.149Z,22.97
2023-08-03T23:19:18.163Z,22.94
2023-08-03T23:24:20.250Z,22.90
2023-08-03T23:29:22.226Z,22.82
2023-08-03T23:34:24.268Z,22.78
2023-08-03T23:39:26.254Z,22.78
2023-08-03T23:44:28.242Z,22.76
2023-08-03T23:49:30.221Z,22.78
2023-08-03T23:54:32.191Z,22.83
2023-08-03T23:59:34.249Z,22.89
